VIS870 EDDP-EGLL
Flight info
| Callsign | VIS870 |
|---|---|
| Flight time | N/A |
| Altitude | 40000 |
| Route | PENEM1X PENEM Y233 EMBOX L986 POVEL DCT ROBEG DCT ABNED L980 LOGAN |
| Aircraft | B748/H-SDE3FGHIM1M2RWXY/LB1 |
Departure
| Time | 2026-05-07 20:30 |
|---|---|
| Airport | Leipzig/Halle Airport (EDDP) |
Arrival
| Time | N/A |
|---|---|
| Airport | London Heathrow Airport (EGLL) |
| Time | Latitude | Longitude | Altitude | Speed | Heading |
|---|---|---|---|---|---|
| 2026-05-07 20:07 | 51.41881 | 12.22104 | 455 ft | 0 kts | 15° |
| 2026-05-07 20:19 | 51.41880 | 12.22104 | 455 ft | 1 kts | 15° |
| 2026-05-07 20:19 | 51.41863 | 12.22097 | 455 ft | 3 kts | 14° |
| 2026-05-07 20:19 | 51.41830 | 12.22084 | 454 ft | 1 kts | 12° |
| 2026-05-07 20:20 | 51.41813 | 12.22078 | 454 ft | 2 kts | 1° |
| 2026-05-07 20:20 | 51.41800 | 12.22079 | 454 ft | 3 kts | 334° |
| 2026-05-07 20:20 | 51.41790 | 12.22089 | 455 ft | 2 kts | 297° |
| 2026-05-07 20:20 | 51.41790 | 12.22087 | 455 ft | 0 kts | 295° |
| 2026-05-07 20:21 | 51.41787 | 12.22095 | 453 ft | 1 kts | 278° |
| 2026-05-07 20:21 | 51.41786 | 12.22127 | 455 ft | 3 kts | 271° |
| 2026-05-07 20:21 | 51.41784 | 12.22156 | 458 ft | 0 kts | 282° |
| 2026-05-07 20:22 | 51.41784 | 12.22155 | 458 ft | 2 kts | 282° |
| 2026-05-07 20:22 | 51.41799 | 12.22052 | 455 ft | 23 kts | 285° |
| 2026-05-07 20:22 | 51.41856 | 12.21734 | 451 ft | 30 kts | 284° |
| 2026-05-07 20:23 | 51.41915 | 12.21398 | 436 ft | 33 kts | 285° |
| 2026-05-07 20:23 | 51.41954 | 12.21157 | 429 ft | 0 kts | 288° |
| 2026-05-07 20:23 | 51.41963 | 12.21112 | 426 ft | 21 kts | 285° |
| 2026-05-07 20:23 | 51.42005 | 12.20934 | 425 ft | 8 kts | 311° |
| 2026-05-07 20:24 | 51.42052 | 12.20924 | 429 ft | 10 kts | 12° |
| 2026-05-07 20:24 | 51.42165 | 12.20976 | 434 ft | 20 kts | 15° |
| 2026-05-07 20:24 | 51.42290 | 12.21027 | 429 ft | 11 kts | 15° |
| 2026-05-07 20:24 | 51.42294 | 12.21030 | 429 ft | 0 kts | 18° |
| 2026-05-07 20:25 | 51.42303 | 12.21034 | 446 ft | 10 kts | 16° |
| 2026-05-07 20:25 | 51.42441 | 12.21092 | 452 ft | 21 kts | 15° |
| 2026-05-07 20:25 | 51.42580 | 12.21154 | 452 ft | 21 kts | 15° |
| 2026-05-07 20:25 | 51.42729 | 12.21216 | 432 ft | 24 kts | 17° |
| 2026-05-07 20:26 | 51.42846 | 12.21269 | 430 ft | 0 kts | 15° |
| 2026-05-07 20:28 | 51.42863 | 12.21278 | 435 ft | 11 kts | 19° |
| 2026-05-07 20:28 | 51.42988 | 12.21438 | 431 ft | 32 kts | 44° |
| 2026-05-07 20:29 | 51.43120 | 12.21689 | 448 ft | 26 kts | 66° |
| 2026-05-07 20:29 | 51.43145 | 12.21973 | 446 ft | 38 kts | 85° |
| 2026-05-07 20:29 | 51.43177 | 12.22679 | 448 ft | 90 kts | 86° |
| 2026-05-07 20:29 | 51.43208 | 12.24173 | 616 ft | 170 kts | 97° |
| 2026-05-07 20:30 | 51.43033 | 12.25991 | 2092 ft | 140 kts | 75° |
| 2026-05-07 20:30 | 51.43524 | 12.27205 | 2925 ft | 141 kts | 47° |
| 2026-05-07 20:30 | 51.44272 | 12.28525 | 2910 ft | 183 kts | 42° |
| 2026-05-07 20:30 | 51.45372 | 12.29812 | 3186 ft | 205 kts | 33° |
| 2026-05-07 20:31 | 51.46704 | 12.30676 | 3905 ft | 214 kts | 19° |
| 2026-05-07 20:31 | 51.48202 | 12.30965 | 4761 ft | 220 kts | 3° |
| 2026-05-07 20:31 | 51.49728 | 12.30560 | 5598 ft | 226 kts | 346° |
| 2026-05-07 20:31 | 51.51150 | 12.29436 | 6457 ft | 231 kts | 330° |
| 2026-05-07 20:32 | 51.52485 | 12.27975 | 7267 ft | 233 kts | 330° |
| 2026-05-07 20:32 | 51.53841 | 12.26529 | 8051 ft | 236 kts | 332° |
| 2026-05-07 20:32 | 51.55226 | 12.25093 | 8832 ft | 238 kts | 332° |
| 2026-05-07 20:32 | 51.56630 | 12.23636 | 9580 ft | 242 kts | 332° |
| 2026-05-07 20:33 | 51.58032 | 12.22176 | 9980 ft | 245 kts | 332° |
| 2026-05-07 20:33 | 51.59457 | 12.20684 | 9993 ft | 242 kts | 332° |
| 2026-05-07 20:33 | 51.60862 | 12.19202 | 9994 ft | 241 kts | 332° |
| 2026-05-07 20:33 | 51.62347 | 12.17691 | 10013 ft | 269 kts | 333° |
| 2026-05-07 20:34 | 51.64006 | 12.16056 | 10012 ft | 282 kts | 333° |
| 2026-05-07 20:34 | 51.65663 | 12.14375 | 10015 ft | 282 kts | 332° |
| 2026-05-07 20:34 | 51.67331 | 12.12659 | 10006 ft | 285 kts | 332° |
| 2026-05-07 20:34 | 51.69003 | 12.10946 | 9994 ft | 284 kts | 333° |
| 2026-05-07 20:35 | 51.70670 | 12.09232 | 10010 ft | 285 kts | 330° |
| 2026-05-07 20:35 | 51.72138 | 12.07091 | 9986 ft | 285 kts | 318° |
| 2026-05-07 20:35 | 51.73481 | 12.04713 | 10205 ft | 287 kts | 316° |
| 2026-05-07 20:35 | 51.74784 | 12.02320 | 10889 ft | 289 kts | 316° |
| 2026-05-07 20:36 | 51.76118 | 11.99869 | 11589 ft | 292 kts | 316° |
| 2026-05-07 20:36 | 51.77481 | 11.97424 | 12260 ft | 295 kts | 317° |
| 2026-05-07 20:36 | 51.78876 | 11.94978 | 12944 ft | 298 kts | 317° |
| 2026-05-07 20:36 | 51.80283 | 11.92501 | 13605 ft | 301 kts | 317° |
| 2026-05-07 20:37 | 51.81699 | 11.89985 | 14213 ft | 304 kts | 317° |
| 2026-05-07 20:37 | 51.83125 | 11.87448 | 14791 ft | 306 kts | 316° |
| 2026-05-07 20:37 | 51.84563 | 11.84894 | 15365 ft | 308 kts | 316° |
| 2026-05-07 20:37 | 51.85883 | 11.82192 | 15884 ft | 312 kts | 309° |
| 2026-05-07 20:38 | 51.87112 | 11.79275 | 16482 ft | 314 kts | 307° |
| 2026-05-07 20:38 | 51.88337 | 11.76346 | 17037 ft | 316 kts | 307° |
| 2026-05-07 20:38 | 51.89589 | 11.73415 | 17606 ft | 317 kts | 307° |
| 2026-05-07 20:38 | 51.90850 | 11.70467 | 18153 ft | 319 kts | 307° |
| 2026-05-07 20:39 | 51.92113 | 11.67497 | 18655 ft | 321 kts | 307° |
| 2026-05-07 20:39 | 51.93380 | 11.64512 | 19117 ft | 323 kts | 307° |
| 2026-05-07 20:39 | 51.94656 | 11.61498 | 19587 ft | 325 kts | 307° |
| 2026-05-07 20:39 | 51.95939 | 11.58469 | 20061 ft | 327 kts | 307° |
| 2026-05-07 20:40 | 51.97226 | 11.55428 | 20505 ft | 328 kts | 307° |
| 2026-05-07 20:40 | 51.98291 | 11.52201 | 20861 ft | 332 kts | 291° |
| 2026-05-07 20:40 | 51.98736 | 11.48505 | 21232 ft | 336 kts | 274° |
| 2026-05-07 20:40 | 51.98586 | 11.44709 | 21682 ft | 338 kts | 266° |
| 2026-05-07 20:41 | 51.98259 | 11.40931 | 22165 ft | 339 kts | 265° |
| 2026-05-07 20:41 | 51.97985 | 11.37133 | 22630 ft | 339 kts | 269° |
| 2026-05-07 20:41 | 51.97870 | 11.33321 | 23078 ft | 339 kts | 273° |
| 2026-05-07 20:41 | 51.97943 | 11.29496 | 23495 ft | 340 kts | 276° |
| 2026-05-07 20:42 | 51.98084 | 11.25658 | 23855 ft | 342 kts | 276° |
| 2026-05-07 20:42 | 51.98163 | 11.21793 | 24157 ft | 344 kts | 274° |
| 2026-05-07 20:42 | 51.98204 | 11.17958 | 24478 ft | 345 kts | 274° |
| 2026-05-07 20:42 | 51.98262 | 11.14055 | 24800 ft | 347 kts | 275° |
| 2026-05-07 20:43 | 51.98338 | 11.10138 | 25099 ft | 349 kts | 275° |
| 2026-05-07 20:43 | 51.98408 | 11.06256 | 25389 ft | 350 kts | 275° |
| 2026-05-07 20:43 | 51.98470 | 11.02240 | 25705 ft | 352 kts | 275° |
| 2026-05-07 20:43 | 51.98531 | 10.98250 | 26011 ft | 354 kts | 275° |
| 2026-05-07 20:44 | 51.98594 | 10.94255 | 26323 ft | 356 kts | 275° |
| 2026-05-07 20:44 | 51.98656 | 10.90324 | 26635 ft | 358 kts | 275° |
| 2026-05-07 20:44 | 51.98717 | 10.86184 | 26965 ft | 360 kts | 275° |
| 2026-05-07 20:44 | 51.98775 | 10.82175 | 27292 ft | 361 kts | 275° |
| 2026-05-07 20:45 | 51.98834 | 10.78086 | 27609 ft | 363 kts | 274° |
| 2026-05-07 20:45 | 51.98890 | 10.73989 | 27933 ft | 366 kts | 274° |
| 2026-05-07 20:45 | 51.98946 | 10.69846 | 28273 ft | 368 kts | 274° |
| 2026-05-07 20:45 | 51.99001 | 10.65689 | 28603 ft | 370 kts | 274° |
| 2026-05-07 20:46 | 51.99055 | 10.61509 | 28947 ft | 372 kts | 274° |
| 2026-05-07 20:46 | 51.99107 | 10.57294 | 29277 ft | 374 kts | 274° |
| 2026-05-07 20:46 | 51.99159 | 10.53067 | 29624 ft | 376 kts | 274° |
| 2026-05-07 20:46 | 51.99208 | 10.48812 | 30005 ft | 377 kts | 274° |
| 2026-05-07 20:47 | 51.99255 | 10.44618 | 30396 ft | 377 kts | 274° |
| 2026-05-07 20:47 | 51.99302 | 10.40301 | 30727 ft | 379 kts | 274° |
| 2026-05-07 20:47 | 51.99352 | 10.36051 | 30831 ft | 386 kts | 274° |
| 2026-05-07 20:47 | 51.99402 | 10.31633 | 30805 ft | 397 kts | 274° |
| 2026-05-07 20:48 | 51.99450 | 10.27094 | 30780 ft | 407 kts | 274° |
| 2026-05-07 20:48 | 51.99546 | 10.17685 | 30747 ft | 427 kts | 274° |
| 2026-05-07 20:49 | 51.99638 | 10.07850 | 30708 ft | 444 kts | 274° |
| 2026-05-07 20:49 | 51.99722 | 9.97725 | 30727 ft | 459 kts | 274° |
| 2026-05-07 20:50 | 51.99801 | 9.87283 | 30951 ft | 467 kts | 274° |
| 2026-05-07 20:50 | 51.99841 | 9.81996 | 31116 ft | 470 kts | 274° |
| 2026-05-07 20:50 | 51.99881 | 9.76684 | 31317 ft | 472 kts | 274° |
| 2026-05-07 20:50 | 51.99921 | 9.71347 | 31533 ft | 474 kts | 274° |
| 2026-05-07 20:51 | 51.99959 | 9.65994 | 31760 ft | 475 kts | 274° |
| 2026-05-07 20:51 | 51.99995 | 9.60625 | 32013 ft | 477 kts | 273° |
| 2026-05-07 20:51 | 52.00027 | 9.55238 | 32275 ft | 478 kts | 273° |
| 2026-05-07 20:51 | 52.00052 | 9.49847 | 32648 ft | 477 kts | 273° |
| 2026-05-07 20:52 | 52.00072 | 9.44474 | 33044 ft | 476 kts | 273° |
| 2026-05-07 20:52 | 52.00085 | 9.39184 | 33430 ft | 475 kts | 273° |
| 2026-05-07 20:52 | 52.00091 | 9.33835 | 33829 ft | 474 kts | 273° |
| 2026-05-07 20:52 | 52.00090 | 9.28489 | 34188 ft | 473 kts | 272° |
| 2026-05-07 20:53 | 52.00081 | 9.23154 | 34503 ft | 473 kts | 272° |
| 2026-05-07 20:53 | 52.00066 | 9.17826 | 34812 ft | 472 kts | 272° |
| 2026-05-07 20:53 | 52.00043 | 9.12502 | 35139 ft | 472 kts | 272° |
| 2026-05-07 20:53 | 52.00015 | 9.07190 | 35474 ft | 471 kts | 272° |
| 2026-05-07 20:54 | 52.00004 | 9.01869 | 35804 ft | 471 kts | 272° |
| 2026-05-07 20:54 | 52.00011 | 8.96632 | 36060 ft | 469 kts | 272° |
| 2026-05-07 20:54 | 52.00010 | 8.91358 | 36075 ft | 467 kts | 272° |
| 2026-05-07 20:55 | 51.99969 | 8.80869 | 36098 ft | 464 kts | 272° |
| 2026-05-07 20:55 | 51.99946 | 8.70421 | 36082 ft | 462 kts | 272° |
| 2026-05-07 20:56 | 51.99900 | 8.59996 | 36098 ft | 462 kts | 272° |
| 2026-05-07 20:56 | 51.99852 | 8.49558 | 36079 ft | 462 kts | 272° |
| 2026-05-07 20:57 | 51.99792 | 8.39185 | 36099 ft | 463 kts | 272° |
| 2026-05-07 20:57 | 51.99724 | 8.28746 | 36099 ft | 463 kts | 271° |
| 2026-05-07 20:58 | 51.99646 | 8.18312 | 36089 ft | 462 kts | 271° |
| 2026-05-07 20:58 | 51.99559 | 8.07880 | 36096 ft | 462 kts | 271° |
| 2026-05-07 20:59 | 51.99462 | 7.97451 | 36088 ft | 463 kts | 271° |
| 2026-05-07 20:59 | 51.99357 | 7.87083 | 36095 ft | 462 kts | 271° |
| 2026-05-07 21:00 | 51.99243 | 7.76655 | 36100 ft | 463 kts | 271° |
| 2026-05-07 21:00 | 51.99119 | 7.66239 | 36098 ft | 462 kts | 271° |
| 2026-05-07 21:01 | 51.98986 | 7.55823 | 36082 ft | 462 kts | 271° |
| 2026-05-07 21:01 | 51.98843 | 7.45393 | 36076 ft | 463 kts | 270° |
| 2026-05-07 21:02 | 51.98693 | 7.35035 | 36079 ft | 463 kts | 270° |
| 2026-05-07 21:02 | 51.98532 | 7.24624 | 36081 ft | 462 kts | 270° |
| 2026-05-07 21:03 | 51.98363 | 7.14193 | 36081 ft | 462 kts | 270° |
| 2026-05-07 21:03 | 51.98183 | 7.03765 | 36079 ft | 462 kts | 270° |
| 2026-05-07 21:04 | 51.97995 | 6.93344 | 36087 ft | 462 kts | 270° |
| 2026-05-07 21:04 | 51.97799 | 6.82988 | 36076 ft | 462 kts | 270° |
| 2026-05-07 21:05 | 51.97592 | 6.72574 | 36072 ft | 462 kts | 270° |
| 2026-05-07 21:05 | 51.97376 | 6.62153 | 36072 ft | 462 kts | 270° |
| 2026-05-07 21:06 | 51.97151 | 6.51733 | 36071 ft | 462 kts | 270° |
| 2026-05-07 21:06 | 51.96917 | 6.41311 | 36075 ft | 462 kts | 270° |
| 2026-05-07 21:07 | 51.96675 | 6.30960 | 36067 ft | 461 kts | 270° |
| 2026-05-07 21:07 | 51.96423 | 6.20550 | 36062 ft | 462 kts | 270° |
| 2026-05-07 21:08 | 51.96161 | 6.10145 | 36067 ft | 462 kts | 269° |
| 2026-05-07 21:08 | 51.95890 | 5.99733 | 36067 ft | 462 kts | 269° |
| 2026-05-07 21:09 | 51.95612 | 5.89398 | 36068 ft | 462 kts | 269° |
| 2026-05-07 21:09 | 51.95323 | 5.78999 | 36061 ft | 461 kts | 269° |
| 2026-05-07 21:10 | 51.95026 | 5.68612 | 36066 ft | 462 kts | 269° |
| 2026-05-07 21:10 | 51.94719 | 5.58232 | 36060 ft | 461 kts | 269° |
| 2026-05-07 21:11 | 51.94405 | 5.47910 | 36060 ft | 461 kts | 269° |
| 2026-05-07 21:11 | 51.93914 | 5.32325 | 36063 ft | 465 kts | 269° |
| 2026-05-07 21:12 | 51.93574 | 5.21710 | 36064 ft | 479 kts | 269° |
| 2026-05-07 21:12 | 51.93212 | 5.10765 | 36066 ft | 493 kts | 269° |
| 2026-05-07 21:13 | 51.92833 | 4.99637 | 36056 ft | 500 kts | 269° |
| 2026-05-07 21:13 | 51.92431 | 4.88387 | 36058 ft | 500 kts | 269° |
| 2026-05-07 21:14 | 51.92023 | 4.77148 | 36053 ft | 499 kts | 269° |
| 2026-05-07 21:14 | 51.91603 | 4.65931 | 36072 ft | 499 kts | 269° |
| 2026-05-07 21:15 | 51.91173 | 4.54698 | 36076 ft | 499 kts | 268° |
| 2026-05-07 21:15 | 51.90735 | 4.43556 | 36076 ft | 499 kts | 268° |
| 2026-05-07 21:16 | 51.90284 | 4.32340 | 36075 ft | 499 kts | 268° |
| 2026-05-07 21:16 | 51.89822 | 4.21127 | 36071 ft | 499 kts | 268° |
| 2026-05-07 21:17 | 51.89349 | 4.09910 | 36066 ft | 499 kts | 268° |
| 2026-05-07 21:17 | 51.88869 | 3.98775 | 36068 ft | 499 kts | 268° |
| 2026-05-07 21:18 | 51.88375 | 3.87568 | 36061 ft | 498 kts | 268° |
| 2026-05-07 21:18 | 51.87871 | 3.76386 | 36056 ft | 498 kts | 268° |
| 2026-05-07 21:19 | 51.87357 | 3.65214 | 36058 ft | 498 kts | 268° |
| 2026-05-07 21:19 | 51.86832 | 3.54041 | 36058 ft | 498 kts | 268° |
| 2026-05-07 21:20 | 51.86301 | 3.42947 | 36064 ft | 498 kts | 268° |
| 2026-05-07 21:20 | 51.85755 | 3.31785 | 36064 ft | 497 kts | 268° |
| 2026-05-07 21:21 | 51.85213 | 3.20696 | 35516 ft | 492 kts | 268° |
| 2026-05-07 21:21 | 51.84918 | 3.15193 | 34768 ft | 490 kts | 266° |
| 2026-05-07 21:21 | 51.84563 | 3.09733 | 34033 ft | 486 kts | 266° |
| 2026-05-07 21:22 | 51.84221 | 3.04328 | 33176 ft | 480 kts | 266° |
| 2026-05-07 21:22 | 51.83888 | 2.98985 | 32350 ft | 474 kts | 267° |
| 2026-05-07 21:22 | 51.83566 | 2.93796 | 31566 ft | 469 kts | 267° |
| 2026-05-07 21:22 | 51.83243 | 2.88578 | 30794 ft | 463 kts | 267° |
| 2026-05-07 21:23 | 51.82926 | 2.83444 | 30026 ft | 457 kts | 267° |
| 2026-05-07 21:23 | 51.82612 | 2.78362 | 29137 ft | 451 kts | 267° |
| 2026-05-07 21:23 | 51.82290 | 2.73356 | 28269 ft | 446 kts | 266° |
| 2026-05-07 21:23 | 51.81957 | 2.68403 | 27421 ft | 440 kts | 266° |
| 2026-05-07 21:24 | 51.81618 | 2.63516 | 26598 ft | 436 kts | 266° |
| 2026-05-07 21:24 | 51.81276 | 2.58672 | 25789 ft | 431 kts | 266° |
| 2026-05-07 21:24 | 51.80940 | 2.53944 | 25017 ft | 427 kts | 266° |
| 2026-05-07 21:24 | 51.80603 | 2.49202 | 24249 ft | 423 kts | 266° |
| 2026-05-07 21:25 | 51.80275 | 2.44502 | 23475 ft | 419 kts | 266° |
| 2026-05-07 21:25 | 51.79952 | 2.39846 | 22609 ft | 416 kts | 266° |
| 2026-05-07 21:25 | 51.79620 | 2.35225 | 21778 ft | 412 kts | 265° |
| 2026-05-07 21:25 | 51.79294 | 2.30660 | 20981 ft | 408 kts | 266° |
| 2026-05-07 21:26 | 51.78974 | 2.26125 | 20203 ft | 404 kts | 265° |
| 2026-05-07 21:26 | 51.78676 | 2.21635 | 19471 ft | 400 kts | 269° |
| 2026-05-07 21:26 | 51.78475 | 2.17162 | 18722 ft | 397 kts | 267° |
| 2026-05-07 21:26 | 51.78200 | 2.12799 | 17976 ft | 395 kts | 266° |
| 2026-05-07 21:27 | 51.77902 | 2.08409 | 17063 ft | 394 kts | 266° |
| 2026-05-07 21:27 | 51.77617 | 2.03997 | 15944 ft | 398 kts | 266° |
| 2026-05-07 21:27 | 51.77365 | 1.99511 | 14736 ft | 404 kts | 267° |
| 2026-05-07 21:27 | 51.77126 | 1.94956 | 13406 ft | 410 kts | 267° |
| 2026-05-07 21:28 | 51.76894 | 1.90332 | 11896 ft | 417 kts | 267° |
| 2026-05-07 21:28 | 51.76658 | 1.85629 | 10438 ft | 425 kts | 267° |
| 2026-05-07 21:28 | 51.76378 | 1.80868 | 10081 ft | 429 kts | 266° |
| 2026-05-07 21:28 | 51.76115 | 1.76041 | 10073 ft | 447 kts | 268° |
| 2026-05-07 21:29 | 51.75871 | 1.71000 | 10063 ft | 445 kts | 268° |
| 2026-05-07 21:29 | 51.75626 | 1.66057 | 10059 ft | 446 kts | 267° |
| 2026-05-07 21:29 | 51.75359 | 1.61059 | 10050 ft | 448 kts | 267° |
| 2026-05-07 21:29 | 51.75072 | 1.56072 | 10053 ft | 447 kts | 266° |
| 2026-05-07 21:30 | 51.74769 | 1.51094 | 10055 ft | 447 kts | 266° |
| 2026-05-07 21:30 | 51.74452 | 1.46091 | 10049 ft | 447 kts | 266° |
| 2026-05-07 21:30 | 51.74129 | 1.41108 | 10058 ft | 446 kts | 266° |
| 2026-05-07 21:30 | 51.73801 | 1.36119 | 10049 ft | 447 kts | 266° |
| 2026-05-07 21:31 | 51.73474 | 1.31154 | 9977 ft | 445 kts | 266° |
| 2026-05-07 21:31 | 51.73142 | 1.26231 | 9974 ft | 447 kts | 266° |
| 2026-05-07 21:31 | 51.72807 | 1.21250 | 9974 ft | 446 kts | 266° |
| 2026-05-07 21:31 | 51.72473 | 1.16271 | 9973 ft | 446 kts | 266° |
| 2026-05-07 21:32 | 51.72151 | 1.11326 | 9665 ft | 442 kts | 266° |
| 2026-05-07 21:32 | 51.71825 | 1.06423 | 9078 ft | 438 kts | 266° |
| 2026-05-07 21:32 | 51.71481 | 1.01569 | 8567 ft | 434 kts | 266° |
| 2026-05-07 21:32 | 51.71127 | 0.96776 | 8163 ft | 427 kts | 265° |
| 2026-05-07 21:33 | 51.70785 | 0.92092 | 7508 ft | 409 kts | 266° |
| 2026-05-07 21:33 | 51.70395 | 0.87843 | 7189 ft | 354 kts | 263° |
| 2026-05-07 21:33 | 51.69962 | 0.84242 | 7126 ft | 310 kts | 261° |
| 2026-05-07 21:33 | 51.69547 | 0.81069 | 7086 ft | 275 kts | 261° |
| 2026-05-07 21:34 | 51.69245 | 0.78083 | 7049 ft | 266 kts | 264° |
| 2026-05-07 21:34 | 51.69038 | 0.75138 | 7022 ft | 263 kts | 266° |
| 2026-05-07 21:34 | 51.68856 | 0.72208 | 7014 ft | 262 kts | 266° |
| 2026-05-07 21:34 | 51.68654 | 0.69286 | 7010 ft | 263 kts | 265° |
| 2026-05-07 21:35 | 51.68439 | 0.66371 | 7014 ft | 262 kts | 265° |
| 2026-05-07 21:35 | 51.68228 | 0.63449 | 7013 ft | 262 kts | 265° |
| 2026-05-07 21:35 | 51.68023 | 0.60576 | 7011 ft | 262 kts | 265° |
| 2026-05-07 21:35 | 51.67813 | 0.57659 | 7014 ft | 262 kts | 265° |
| 2026-05-07 21:36 | 51.67603 | 0.54748 | 7001 ft | 262 kts | 265° |
| 2026-05-07 21:36 | 51.67390 | 0.51834 | 7013 ft | 262 kts | 265° |
| 2026-05-07 21:36 | 51.67177 | 0.48919 | 7008 ft | 262 kts | 266° |
| 2026-05-07 21:36 | 51.66966 | 0.46015 | 7009 ft | 260 kts | 265° |
| 2026-05-07 21:37 | 51.66755 | 0.43162 | 7003 ft | 245 kts | 266° |
| 2026-05-07 21:37 | 51.66561 | 0.40619 | 6977 ft | 213 kts | 265° |
| 2026-05-07 21:37 | 51.66389 | 0.38416 | 6944 ft | 191 kts | 265° |
| 2026-05-07 21:37 | 51.66226 | 0.36271 | 6736 ft | 203 kts | 265° |
| 2026-05-07 21:38 | 51.66057 | 0.33890 | 6744 ft | 227 kts | 266° |
| 2026-05-07 21:38 | 51.65878 | 0.31269 | 6851 ft | 238 kts | 266° |
| 2026-05-07 21:38 | 51.65686 | 0.28618 | 6945 ft | 240 kts | 265° |
| 2026-05-07 21:38 | 51.65484 | 0.25943 | 7003 ft | 241 kts | 265° |
| 2026-05-07 21:39 | 51.65281 | 0.23268 | 7002 ft | 241 kts | 265° |
| 2026-05-07 21:39 | 51.65080 | 0.20589 | 7011 ft | 240 kts | 265° |
| 2026-05-07 21:39 | 51.64877 | 0.17917 | 7004 ft | 241 kts | 265° |
| 2026-05-07 21:39 | 51.64681 | 0.15233 | 7016 ft | 240 kts | 269° |
| 2026-05-07 21:40 | 51.64609 | 0.12572 | 6993 ft | 242 kts | 267° |
| 2026-05-07 21:40 | 51.64430 | 0.09890 | 7011 ft | 241 kts | 265° |
| 2026-05-07 21:40 | 51.64240 | 0.07214 | 7012 ft | 241 kts | 266° |
| 2026-05-07 21:40 | 51.64087 | 0.04524 | 7006 ft | 241 kts | 267° |
| 2026-05-07 21:41 | 51.63950 | 0.01840 | 7013 ft | 240 kts | 267° |
| 2026-05-07 21:41 | 51.63806 | -0.00840 | 6990 ft | 241 kts | 267° |
| 2026-05-07 21:41 | 51.63657 | -0.03518 | 6982 ft | 241 kts | 268° |
| 2026-05-07 21:41 | 51.63510 | -0.06199 | 6992 ft | 240 kts | 267° |
| 2026-05-07 21:42 | 51.63362 | -0.08875 | 6987 ft | 241 kts | 268° |
| 2026-05-07 21:42 | 51.63213 | -0.11561 | 6985 ft | 241 kts | 268° |
| 2026-05-07 21:42 | 51.63063 | -0.14248 | 6995 ft | 240 kts | 267° |
| 2026-05-07 21:42 | 51.62915 | -0.16890 | 6986 ft | 241 kts | 267° |
| 2026-05-07 21:43 | 51.62764 | -0.19571 | 6988 ft | 241 kts | 267° |
| 2026-05-07 21:43 | 51.62613 | -0.22248 | 6993 ft | 240 kts | 267° |
| 2026-05-07 21:43 | 51.62461 | -0.24928 | 6979 ft | 240 kts | 267° |
| 2026-05-07 21:43 | 51.62309 | -0.27602 | 6988 ft | 240 kts | 267° |
| 2026-05-07 21:44 | 51.62156 | -0.30275 | 6994 ft | 241 kts | 267° |
| 2026-05-07 21:44 | 51.62003 | -0.32957 | 6984 ft | 241 kts | 267° |
| 2026-05-07 21:44 | 51.61848 | -0.35637 | 6994 ft | 240 kts | 267° |
| 2026-05-07 21:44 | 51.61693 | -0.38318 | 6987 ft | 241 kts | 267° |
| 2026-05-07 21:45 | 51.61539 | -0.40963 | 6981 ft | 241 kts | 267° |
| 2026-05-07 21:45 | 51.61383 | -0.43641 | 6995 ft | 240 kts | 267° |
| 2026-05-07 21:45 | 51.61226 | -0.46318 | 6979 ft | 241 kts | 267° |
| 2026-05-07 21:45 | 51.61069 | -0.48999 | 6991 ft | 240 kts | 267° |
| 2026-05-07 21:46 | 51.60911 | -0.51674 | 6991 ft | 240 kts | 267° |
| 2026-05-07 21:46 | 51.60753 | -0.54346 | 6975 ft | 241 kts | 267° |
| 2026-05-07 21:46 | 51.60593 | -0.57022 | 6994 ft | 240 kts | 267° |
| 2026-05-07 21:46 | 51.60434 | -0.59699 | 6977 ft | 241 kts | 267° |
| 2026-05-07 21:47 | 51.60275 | -0.62339 | 6987 ft | 241 kts | 267° |
| 2026-05-07 21:47 | 51.60115 | -0.65017 | 6991 ft | 240 kts | 267° |
| 2026-05-07 21:47 | 51.59952 | -0.67699 | 6982 ft | 242 kts | 267° |
| 2026-05-07 21:47 | 51.59790 | -0.70378 | 6990 ft | 240 kts | 267° |
| 2026-05-07 21:48 | 51.59627 | -0.73051 | 6986 ft | 241 kts | 267° |
| 2026-05-07 21:48 | 51.59456 | -0.75731 | 6968 ft | 241 kts | 263° |
| 2026-05-07 21:48 | 51.58866 | -0.78210 | 6945 ft | 240 kts | 237° |
| 2026-05-07 21:48 | 51.57642 | -0.80000 | 6954 ft | 240 kts | 210° |
| 2026-05-07 21:49 | 51.56051 | -0.80785 | 6713 ft | 243 kts | 186° |
| 2026-05-07 21:49 | 51.54372 | -0.80541 | 6230 ft | 240 kts | 171° |
| 2026-05-07 21:49 | 51.52818 | -0.80021 | 5967 ft | 221 kts | 173° |
| 2026-05-07 21:49 | 51.51358 | -0.79768 | 5720 ft | 201 kts | 179° |
| 2026-05-07 21:50 | 51.50016 | -0.79675 | 5447 ft | 186 kts | 178° |
| 2026-05-07 21:50 | 51.48850 | -0.79002 | 5148 ft | 173 kts | 149° |
| 2026-05-07 21:50 | 51.48027 | -0.77739 | 4763 ft | 161 kts | 127° |
| 2026-05-07 21:50 | 51.47597 | -0.76080 | 4065 ft | 166 kts | 105° |
| 2026-05-07 21:51 | 51.47573 | -0.74220 | 3427 ft | 166 kts | 92° |
| 2026-05-07 21:51 | 51.47600 | -0.72377 | 2817 ft | 165 kts | 94° |
| 2026-05-07 21:51 | 51.47618 | -0.70595 | 2518 ft | 154 kts | 94° |
| 2026-05-07 21:51 | 51.47628 | -0.68842 | 2545 ft | 164 kts | 95° |
| 2026-05-07 21:52 | 51.47634 | -0.67024 | 2310 ft | 160 kts | 95° |
| 2026-05-07 21:52 | 51.47644 | -0.65210 | 2113 ft | 164 kts | 95° |
| 2026-05-07 21:52 | 51.47654 | -0.63402 | 1895 ft | 163 kts | 95° |
| 2026-05-07 21:52 | 51.47662 | -0.61583 | 1680 ft | 162 kts | 95° |
| 2026-05-07 21:53 | 51.47670 | -0.59768 | 1479 ft | 162 kts | 96° |
| 2026-05-07 21:53 | 51.47680 | -0.57958 | 1256 ft | 163 kts | 95° |
| 2026-05-07 21:53 | 51.47688 | -0.56151 | 1036 ft | 161 kts | 95° |
| 2026-05-07 21:53 | 51.47696 | -0.54353 | 821 ft | 160 kts | 94° |
| 2026-05-07 21:54 | 51.47703 | -0.52606 | 636 ft | 159 kts | 94° |
| 2026-05-07 21:54 | 51.47709 | -0.50837 | 404 ft | 156 kts | 94° |
| 2026-05-07 21:54 | 51.47728 | -0.49079 | 225 ft | 157 kts | 92° |
| 2026-05-07 21:54 | 51.47745 | -0.47353 | 106 ft | 148 kts | 93° |